sensor_id;sensor_type;location;lat;lon;timestamp;pressure;altitude;pressure_sealevel;temperature;humidity
18533;BME280;9396;51.510;11.934;2024-02-23T00:00:19;97543.09;;;11.41;94.54
18533;BME280;9396;51.510;11.934;2024-02-23T00:02:46;97524.22;;;11.43;93.92
18533;BME280;9396;51.510;11.934;2024-02-23T00:05:13;97532.78;;;11.45;93.48
18533;BME280;9396;51.510;11.934;2024-02-23T00:07:41;97537.41;;;11.38;92.83
18533;BME280;9396;51.510;11.934;2024-02-23T00:10:08;97548.41;;;11.30;93.37
18533;BME280;9396;51.510;11.934;2024-02-23T00:12:34;97553.03;;;11.34;93.63
18533;BME280;9396;51.510;11.934;2024-02-23T00:15:01;97554.31;;;11.32;93.09
18533;BME280;9396;51.510;11.934;2024-02-23T00:17:28;97550.47;;;11.28;92.71
18533;BME280;9396;51.510;11.934;2024-02-23T00:19:54;97556.56;;;11.17;93.23
18533;BME280;9396;51.510;11.934;2024-02-23T00:22:21;97577.84;;;11.17;93.13
18533;BME280;9396;51.510;11.934;2024-02-23T00:24:49;97585.34;;;11.08;92.29
18533;BME280;9396;51.510;11.934;2024-02-23T00:27:15;97597.25;;;11.06;92.52
18533;BME280;9396;51.510;11.934;2024-02-23T00:29:42;97602.78;;;11.04;92.08
18533;BME280;9396;51.510;11.934;2024-02-23T00:32:09;97621.50;;;10.98;92.12
18533;BME280;9396;51.510;11.934;2024-02-23T00:34:36;97637.47;;;10.98;90.37
18533;BME280;9396;51.510;11.934;2024-02-23T00:37:03;97653.56;;;10.85;89.74
18533;BME280;9396;51.510;11.934;2024-02-23T00:39:30;97637.25;;;10.81;88.76
18533;BME280;9396;51.510;11.934;2024-02-23T00:41:59;97653.28;;;10.74;85.53
18533;BME280;9396;51.510;11.934;2024-02-23T00:44:25;97641.94;;;10.67;83.63
18533;BME280;9396;51.510;11.934;2024-02-23T00:46:52;97664.53;;;10.58;81.31
18533;BME280;9396;51.510;11.934;2024-02-23T00:49:19;97669.84;;;10.58;80.73
18533;BME280;9396;51.510;11.934;2024-02-23T00:51:45;97655.56;;;10.53;80.96
18533;BME280;9396;51.510;11.934;2024-02-23T00:54:12;97665.09;;;10.42;80.35
18533;BME280;9396;51.510;11.934;2024-02-23T00:56:38;97684.34;;;10.38;81.24
18533;BME280;9396;51.510;11.934;2024-02-23T00:59:06;97695.63;;;10.33;81.72
18533;BME280;9396;51.510;11.934;2024-02-23T01:01:33;97696.09;;;10.30;81.26
18533;BME280;9396;51.510;11.934;2024-02-23T01:04:00;97694.28;;;10.24;80.65
18533;BME280;9396;51.510;11.934;2024-02-23T01:06:26;97702.09;;;10.19;81.34
18533;BME280;9396;51.510;11.934;2024-02-23T01:08:53;97717.88;;;10.14;80.65
18533;BME280;9396;51.510;11.934;2024-02-23T01:11:20;97723.59;;;10.11;81.09
18533;BME280;9396;51.510;11.934;2024-02-23T01:13:47;97742.00;;;10.06;80.30
18533;BME280;9396;51.510;11.934;2024-02-23T01:16:15;97741.03;;;10.01;80.21
18533;BME280;9396;51.510;11.934;2024-02-23T01:18:42;97774.56;;;9.95;81.09
18533;BME280;9396;51.510;11.934;2024-02-23T01:21:08;97785.19;;;9.95;80.23
18533;BME280;9396;51.510;11.934;2024-02-23T01:23:35;97782.75;;;9.94;80.81
18533;BME280;9396;51.510;11.934;2024-02-23T01:26:02;97808.50;;;9.93;80.80
18533;BME280;9396;51.510;11.934;2024-02-23T01:28:28;97805.66;;;9.88;81.18
18533;BME280;9396;51.510;11.934;2024-02-23T01:30:55;97799.31;;;9.89;81.30
18533;BME280;9396;51.510;11.934;2024-02-23T01:33:23;97823.25;;;9.83;81.26
18533;BME280;9396;51.510;11.934;2024-02-23T01:35:49;97819.19;;;9.80;81.60
18533;BME280;9396;51.510;11.934;2024-02-23T01:38:16;97854.53;;;9.74;82.28
18533;BME280;9396;51.510;11.934;2024-02-23T01:40:46;97859.66;;;9.69;82.21
18533;BME280;9396;51.510;11.934;2024-02-23T01:43:13;97864.19;;;9.62;82.49
18533;BME280;9396;51.510;11.934;2024-02-23T01:45:40;97870.31;;;9.62;83.14
18533;BME280;9396;51.510;11.934;2024-02-23T01:48:07;97880.53;;;9.52;83.72
18533;BME280;9396;51.510;11.934;2024-02-23T01:50:35;97894.19;;;9.56;84.63
18533;BME280;9396;51.510;11.934;2024-02-23T01:53:02;97907.09;;;9.46;85.20
18533;BME280;9396;51.510;11.934;2024-02-23T01:55:29;97920.59;;;9.38;85.89
18533;BME280;9396;51.510;11.934;2024-02-23T01:57:57;97933.88;;;9.38;85.53
18533;BME280;9396;51.510;11.934;2024-02-23T02:00:24;97921.22;;;9.27;84.20
18533;BME280;9396;51.510;11.934;2024-02-23T02:02:51;97919.16;;;9.22;84.76
18533;BME280;9396;51.510;11.934;2024-02-23T02:05:18;97930.19;;;9.26;84.68
18533;BME280;9396;51.510;11.934;2024-02-23T02:07:47;97940.00;;;9.25;85.06
18533;BME280;9396;51.510;11.934;2024-02-23T02:10:16;97940.41;;;9.16;84.44
18533;BME280;9396;51.510;11.934;2024-02-23T02:12:43;97942.66;;;9.25;85.18
18533;BME280;9396;51.510;11.934;2024-02-23T02:15:10;97967.31;;;9.26;84.87
18533;BME280;9396;51.510;11.934;2024-02-23T02:17:37;97967.13;;;9.27;84.99
18533;BME280;9396;51.510;11.934;2024-02-23T02:20:04;97965.91;;;9.30;84.93
18533;BME280;9396;51.510;11.934;2024-02-23T02:22:32;97981.19;;;9.28;84.92
18533;BME280;9396;51.510;11.934;2024-02-23T02:25:00;97979.38;;;9.22;86.01
18533;BME280;9396;51.510;11.934;2024-02-23T02:27:27;97984.69;;;9.22;86.54
18533;BME280;9396;51.510;11.934;2024-02-23T02:29:54;97995.69;;;9.19;86.90
18533;BME280;9396;51.510;11.934;2024-02-23T02:32:20;97993.66;;;9.21;86.88
18533;BME280;9396;51.510;11.934;2024-02-23T02:34:47;98005.91;;;9.28;87.23
18533;BME280;9396;51.510;11.934;2024-02-23T02:37:14;98025.50;;;9.27;87.69
18533;BME280;9396;51.510;11.934;2024-02-23T02:39:40;98016.31;;;9.23;87.97
18533;BME280;9396;51.510;11.934;2024-02-23T02:42:08;98018.56;;;9.20;89.17
18533;BME280;9396;51.510;11.934;2024-02-23T02:44:35;98017.72;;;9.13;90.37
18533;BME280;9396;51.510;11.934;2024-02-23T02:47:02;98028.72;;;9.03;90.31
18533;BME280;9396;51.510;11.934;2024-02-23T02:49:28;98012.19;;;9.01;90.81
18533;BME280;9396;51.510;11.934;2024-02-23T02:51:55;98028.94;;;8.95;90.91
18533;BME280;9396;51.510;11.934;2024-02-23T02:54:22;98014.66;;;8.90;91.36
18533;BME280;9396;51.510;11.934;2024-02-23T02:56:48;98023.19;;;8.79;91.27
18533;BME280;9396;51.510;11.934;2024-02-23T02:59:17;98028.44;;;8.65;91.90
18533;BME280;9396;51.510;11.934;2024-02-23T03:01:44;98038.47;;;8.70;91.98
18533;BME280;9396;51.510;11.934;2024-02-23T03:04:11;98037.22;;;8.66;91.71
18533;BME280;9396;51.510;11.934;2024-02-23T03:06:37;98041.84;;;8.51;92.19
18533;BME280;9396;51.510;11.934;2024-02-23T03:09:04;98048.16;;;8.43;92.69
18533;BME280;9396;51.510;11.934;2024-02-23T03:11:32;98057.50;;;8.39;92.50
18533;BME280;9396;51.510;11.934;2024-02-23T03:13:59;98066.44;;;8.38;91.72
18533;BME280;9396;51.510;11.934;2024-02-23T03:16:27;98077.03;;;8.32;91.67
18533;BME280;9396;51.510;11.934;2024-02-23T03:18:55;98083.16;;;8.32;91.73
18533;BME280;9396;51.510;11.934;2024-02-23T03:21:22;98099.00;;;8.26;91.65
18533;BME280;9396;51.510;11.934;2024-02-23T03:23:48;98103.22;;;8.20;91.57
18533;BME280;9396;51.510;11.934;2024-02-23T03:26:15;98085.47;;;8.14;91.78
18533;BME280;9396;51.510;11.934;2024-02-23T03:28:42;98109.69;;;8.11;92.08
18533;BME280;9396;51.510;11.934;2024-02-23T03:31:09;98108.84;;;8.04;92.53
18533;BME280;9396;51.510;11.934;2024-02-23T03:33:37;98111.84;;;8.01;92.33
18533;BME280;9396;51.510;11.934;2024-02-23T03:36:04;98144.09;;;8.11;91.66
18533;BME280;9396;51.510;11.934;2024-02-23T03:38:31;98153.84;;;8.04;92.19
18533;BME280;9396;51.510;11.934;2024-02-23T03:40:59;98158.72;;;8.07;91.83
18533;BME280;9396;51.510;11.934;2024-02-23T03:43:26;98151.94;;;7.98;91.92
18533;BME280;9396;51.510;11.934;2024-02-23T03:45:52;98150.88;;;7.93;91.73
18533;BME280;9396;51.510;11.934;2024-02-23T03:48:19;98154.19;;;8.01;91.98
18533;BME280;9396;51.510;11.934;2024-02-23T03:50:47;98152.47;;;7.87;92.06
18533;BME280;9396;51.510;11.934;2024-02-23T03:53:14;98163.63;;;7.83;92.11
18533;BME280;9396;51.510;11.934;2024-02-23T03:55:40;98172.34;;;7.77;93.63
18533;BME280;9396;51.510;11.934;2024-02-23T03:58:07;98187.91;;;7.86;92.16
18533;BME280;9396;51.510;11.934;2024-02-23T04:00:34;98204.91;;;7.77;93.02
18533;BME280;9396;51.510;11.934;2024-02-23T04:03:00;98205.75;;;7.78;92.21
18533;BME280;9396;51.510;11.934;2024-02-23T04:05:27;98207.31;;;7.72;92.62
18533;BME280;9396;51.510;11.934;2024-02-23T04:07:55;98212.53;;;7.66;92.54
18533;BME280;9396;51.510;11.934;2024-02-23T04:10:21;98208.94;;;7.73;92.35
18533;BME280;9396;51.510;11.934;2024-02-23T04:12:48;98210.06;;;7.64;91.96
18533;BME280;9396;51.510;11.934;2024-02-23T04:15:14;98225.06;;;7.57;92.50
18533;BME280;9396;51.510;11.934;2024-02-23T04:17:41;98223.78;;;7.53;92.38
18533;BME280;9396;51.510;11.934;2024-02-23T04:20:09;98227.03;;;7.48;92.09
18533;BME280;9396;51.510;11.934;2024-02-23T04:22:36;98239.16;;;7.43;92.10
18533;BME280;9396;51.510;11.934;2024-02-23T04:25:04;98237.03;;;7.53;90.69
18533;BME280;9396;51.510;11.934;2024-02-23T04:27:32;98250.34;;;7.59;90.22
18533;BME280;9396;51.510;11.934;2024-02-23T04:29:58;98255.88;;;7.65;89.85
18533;BME280;9396;51.510;11.934;2024-02-23T04:32:25;98239.50;;;7.76;89.39
18533;BME280;9396;51.510;11.934;2024-02-23T04:34:51;98252.78;;;7.61;88.14
18533;BME280;9396;51.510;11.934;2024-02-23T04:37:18;98255.72;;;7.51;89.09
18533;BME280;9396;51.510;11.934;2024-02-23T04:39:45;98256.69;;;7.44;88.71
18533;BME280;9396;51.510;11.934;2024-02-23T04:42:13;98273.72;;;7.41;88.25
18533;BME280;9396;51.510;11.934;2024-02-23T04:44:41;98272.91;;;7.41;88.75
18533;BME280;9396;51.510;11.934;2024-02-23T04:47:07;98279.09;;;7.48;87.89
18533;BME280;9396;51.510;11.934;2024-02-23T04:49:34;98280.50;;;7.44;87.08
18533;BME280;9396;51.510;11.934;2024-02-23T04:52:01;98296.97;;;7.46;87.17
18533;BME280;9396;51.510;11.934;2024-02-23T04:54:27;98292.50;;;7.46;87.88
18533;BME280;9396;51.510;11.934;2024-02-23T04:56:54;98304.88;;;7.60;87.11
18533;BME280;9396;51.510;11.934;2024-02-23T04:59:22;98316.75;;;7.50;86.21
18533;BME280;9396;51.510;11.934;2024-02-23T05:01:49;98319.69;;;7.40;87.04
18533;BME280;9396;51.510;11.934;2024-02-23T05:04:15;98303.53;;;7.50;86.58
18533;BME280;9396;51.510;11.934;2024-02-23T05:06:42;98331.09;;;7.41;86.34
18533;BME280;9396;51.510;11.934;2024-02-23T05:09:09;98346.03;;;7.48;87.10
18533;BME280;9396;51.510;11.934;2024-02-23T05:11:36;98329.16;;;7.49;86.98
18533;BME280;9396;51.510;11.934;2024-02-23T05:14:02;98333.72;;;7.41;88.23
18533;BME280;9396;51.510;11.934;2024-02-23T05:16:30;98335.75;;;7.39;89.12
18533;BME280;9396;51.510;11.934;2024-02-23T05:18:57;98332.19;;;7.32;86.96
18533;BME280;9396;51.510;11.934;2024-02-23T05:21:24;98343.53;;;7.26;87.64
18533;BME280;9396;51.510;11.934;2024-02-23T05:23:51;98341.78;;;7.18;88.58
18533;BME280;9396;51.510;11.934;2024-02-23T05:26:17;98351.91;;;7.15;89.27
18533;BME280;9396;51.510;11.934;2024-02-23T05:28:44;98357.38;;;6.99;88.93
18533;BME280;9396;51.510;11.934;2024-02-23T05:31:10;98356.09;;;6.95;89.29
18533;BME280;9396;51.510;11.934;2024-02-23T05:33:38;98359.63;;;6.87;90.50
18533;BME280;9396;51.510;11.934;2024-02-23T05:36:06;98366.19;;;6.91;90.63
18533;BME280;9396;51.510;11.934;2024-02-23T05:38:32;98376.69;;;6.85;89.82
18533;BME280;9396;51.510;11.934;2024-02-23T05:40:59;98392.06;;;6.81;89.88
18533;BME280;9396;51.510;11.934;2024-02-23T05:43:26;98402.19;;;6.78;89.84
18533;BME280;9396;51.510;11.934;2024-02-23T05:45:52;98395.81;;;6.87;89.22
18533;BME280;9396;51.510;11.934;2024-02-23T05:48:22;98408.16;;;6.72;90.06
18533;BME280;9396;51.510;11.934;2024-02-23T05:50:50;98405.88;;;6.69;89.55
18533;BME280;9396;51.510;11.934;2024-02-23T05:53:17;98402.69;;;6.59;90.86
18533;BME280;9396;51.510;11.934;2024-02-23T05:55:43;98390.28;;;6.59;90.83
18533;BME280;9396;51.510;11.934;2024-02-23T05:58:10;98397.72;;;6.56;90.36
18533;BME280;9396;51.510;11.934;2024-02-23T06:00:38;98408.56;;;6.61;90.64
18533;BME280;9396;51.510;11.934;2024-02-23T06:03:05;98425.34;;;6.53;90.48
18533;BME280;9396;51.510;11.934;2024-02-23T06:05:32;98422.16;;;6.58;90.33
18533;BME280;9396;51.510;11.934;2024-02-23T06:08:00;98416.28;;;6.70;90.06
18533;BME280;9396;51.510;11.934;2024-02-23T06:10:26;98410.25;;;6.62;89.81
18533;BME280;9396;51.510;11.934;2024-02-23T06:12:53;98419.16;;;6.61;89.95
18533;BME280;9396;51.510;11.934;2024-02-23T06:15:21;98447.63;;;6.50;90.76
18533;BME280;9396;51.510;11.934;2024-02-23T06:17:47;98435.06;;;6.53;89.63
18533;BME280;9396;51.510;11.934;2024-02-23T06:20:14;98421.44;;;6.41;89.32
18533;BME280;9396;51.510;11.934;2024-02-23T06:22:41;98434.50;;;6.42;89.48
18533;BME280;9396;51.510;11.934;2024-02-23T06:25:09;98443.28;;;6.35;90.03
18533;BME280;9396;51.510;11.934;2024-02-23T06:27:37;98421.44;;;6.41;89.47
18533;BME280;9396;51.510;11.934;2024-02-23T06:30:05;98431.69;;;6.44;89.74
18533;BME280;9396;51.510;11.934;2024-02-23T06:32:32;98443.22;;;6.43;89.82
18533;BME280;9396;51.510;11.934;2024-02-23T06:34:59;98433.41;;;6.51;89.80
18533;BME280;9396;51.510;11.934;2024-02-23T06:37:26;98424.88;;;6.49;89.39
18533;BME280;9396;51.510;11.934;2024-02-23T06:39:52;98430.94;;;6.50;89.30
18533;BME280;9396;51.510;11.934;2024-02-23T06:42:21;98438.69;;;6.51;87.81
18533;BME280;9396;51.510;11.934;2024-02-23T06:44:48;98440.34;;;6.53;88.06
18533;BME280;9396;51.510;11.934;2024-02-23T06:47:14;98433.53;;;6.58;89.32
18533;BME280;9396;51.510;11.934;2024-02-23T06:49:41;98434.53;;;6.57;89.36
18533;BME280;9396;51.510;11.934;2024-02-23T06:52:08;98447.16;;;6.47;89.30
18533;BME280;9396;51.510;11.934;2024-02-23T06:54:35;98445.34;;;6.47;88.79
18533;BME280;9396;51.510;11.934;2024-02-23T06:57:01;98444.69;;;6.45;87.21
18533;BME280;9396;51.510;11.934;2024-02-23T06:59:29;98446.00;;;6.49;88.29
18533;BME280;9396;51.510;11.934;2024-02-23T07:01:57;98447.41;;;6.60;87.44
18533;BME280;9396;51.510;11.934;2024-02-23T07:04:24;98452.97;;;6.65;87.66
18533;BME280;9396;51.510;11.934;2024-02-23T07:06:52;98456.25;;;6.67;86.57
18533;BME280;9396;51.510;11.934;2024-02-23T07:09:18;98460.88;;;6.65;86.76
18533;BME280;9396;51.510;11.934;2024-02-23T07:11:45;98463.94;;;6.77;87.44
18533;BME280;9396;51.510;11.934;2024-02-23T07:14:12;98483.78;;;6.73;88.48
18533;BME280;9396;51.510;11.934;2024-02-23T07:16:40;98514.56;;;6.66;88.96
18533;BME280;9396;51.510;11.934;2024-02-23T07:19:07;98529.31;;;6.75;88.67
18533;BME280;9396;51.510;11.934;2024-02-23T07:21:34;98528.34;;;6.76;87.59
18533;BME280;9396;51.510;11.934;2024-02-23T07:24:01;98524.84;;;6.83;87.13
18533;BME280;9396;51.510;11.934;2024-02-23T07:26:28;98528.03;;;6.93;88.73
18533;BME280;9396;51.510;11.934;2024-02-23T07:28:54;98545.03;;;6.99;88.23
18533;BME280;9396;51.510;11.934;2024-02-23T07:31:21;98551.63;;;7.17;87.90
18533;BME280;9396;51.510;11.934;2024-02-23T07:33:49;98559.19;;;7.43;87.99
18533;BME280;9396;51.510;11.934;2024-02-23T07:36:16;98548.19;;;7.54;86.53
18533;BME280;9396;51.510;11.934;2024-02-23T07:38:43;98546.00;;;7.57;86.72
18533;BME280;9396;51.510;11.934;2024-02-23T07:41:09;98554.44;;;7.38;87.22
18533;BME280;9396;51.510;11.934;2024-02-23T07:43:36;98564.19;;;7.38;87.45
18533;BME280;9396;51.510;11.934;2024-02-23T07:46:03;98575.88;;;7.43;87.08
18533;BME280;9396;51.510;11.934;2024-02-23T07:48:33;98595.44;;;7.57;87.84
18533;BME280;9396;51.510;11.934;2024-02-23T07:51:01;98590.91;;;7.80;87.88
18533;BME280;9396;51.510;11.934;2024-02-23T07:53:28;98607.84;;;7.94;86.69
18533;BME280;9396;51.510;11.934;2024-02-23T07:55:55;98607.47;;;8.11;86.46
18533;BME280;9396;51.510;11.934;2024-02-23T07:58:24;98593.84;;;8.00;85.73
18533;BME280;9396;51.510;11.934;2024-02-23T08:00:51;98605.00;;;7.95;83.80
18533;BME280;9396;51.510;11.934;2024-02-23T08:03:18;98615.84;;;8.00;85.09
18533;BME280;9396;51.510;11.934;2024-02-23T08:05:44;98619.88;;;7.96;85.27
18533;BME280;9396;51.510;11.934;2024-02-23T08:08:12;98624.81;;;8.14;86.47
18533;BME280;9396;51.510;11.934;2024-02-23T08:10:39;98623.91;;;8.21;84.73
18533;BME280;9396;51.510;11.934;2024-02-23T08:13:06;98603.63;;;8.14;83.38
18533;BME280;9396;51.510;11.934;2024-02-23T08:15:33;98613.22;;;8.00;84.11
18533;BME280;9396;51.510;11.934;2024-02-23T08:18:01;98614.56;;;7.96;82.53
18533;BME280;9396;51.510;11.934;2024-02-23T08:20:28;98608.19;;;8.20;83.05
18533;BME280;9396;51.510;11.934;2024-02-23T08:22:54;98611.69;;;8.20;84.60
18533;BME280;9396;51.510;11.934;2024-02-23T08:25:22;98613.78;;;8.39;84.21
18533;BME280;9396;51.510;11.934;2024-02-23T08:27:49;98612.31;;;8.51;83.56
18533;BME280;9396;51.510;11.934;2024-02-23T08:30:15;98605.19;;;8.52;81.21
18533;BME280;9396;51.510;11.934;2024-02-23T08:32:42;98590.94;;;8.53;81.41
18533;BME280;9396;51.510;11.934;2024-02-23T08:35:09;98582.94;;;8.68;81.35
18533;BME280;9396;51.510;11.934;2024-02-23T08:37:35;98586.94;;;8.78;81.46
18533;BME280;9396;51.510;11.934;2024-02-23T08:40:02;98584.84;;;8.88;81.18
18533;BME280;9396;51.510;11.934;2024-02-23T08:42:32;98599.34;;;8.42;80.00
18533;BME280;9396;51.510;11.934;2024-02-23T08:44:59;98591.31;;;8.35;81.40
18533;BME280;9396;51.510;11.934;2024-02-23T08:47:26;98593.22;;;8.56;81.79
18533;BME280;9396;51.510;11.934;2024-02-23T08:49:57;98597.88;;;8.54;80.29
18533;BME280;9396;51.510;11.934;2024-02-23T08:52:23;98597.69;;;8.70;79.17
18533;BME280;9396;51.510;11.934;2024-02-23T08:54:50;98607.59;;;8.83;81.37
18533;BME280;9396;51.510;11.934;2024-02-23T08:57:17;98606.97;;;8.81;80.58
18533;BME280;9396;51.510;11.934;2024-02-23T08:59:46;98611.28;;;9.03;79.92
18533;BME280;9396;51.510;11.934;2024-02-23T09:02:13;98620.03;;;9.18;79.87
18533;BME280;9396;51.510;11.934;2024-02-23T09:04:39;98629.00;;;9.38;79.83
18533;BME280;9396;51.510;11.934;2024-02-23T09:07:06;98639.16;;;9.55;79.46
18533;BME280;9396;51.510;11.934;2024-02-23T09:09:33;98633.50;;;9.65;79.58
18533;BME280;9396;51.510;11.934;2024-02-23T09:11:59;98636.56;;;9.62;77.96
18533;BME280;9396;51.510;11.934;2024-02-23T09:14:26;98644.66;;;9.75;79.32
18533;BME280;9396;51.510;11.934;2024-02-23T09:16:54;98656.22;;;9.46;78.67
18533;BME280;9396;51.510;11.934;2024-02-23T09:19:21;98639.66;;;9.44;78.08
18533;BME280;9396;51.510;11.934;2024-02-23T09:21:47;98633.22;;;9.32;80.30
18533;BME280;9396;51.510;11.934;2024-02-23T09:24:14;98626.19;;;9.04;81.08
18533;BME280;9396;51.510;11.934;2024-02-23T09:26:40;98631.47;;;8.83;81.05
18533;BME280;9396;51.510;11.934;2024-02-23T09:29:07;98634.50;;;9.01;83.27
18533;BME280;9396;51.510;11.934;2024-02-23T09:31:34;98644.81;;;9.10;81.29
18533;BME280;9396;51.510;11.934;2024-02-23T09:34:02;98638.47;;;9.26;80.08
18533;BME280;9396;51.510;11.934;2024-02-23T09:36:28;98628.81;;;9.18;79.80
18533;BME280;9396;51.510;11.934;2024-02-23T09:38:55;98626.16;;;9.18;80.41
18533;BME280;9396;51.510;11.934;2024-02-23T09:41:23;98632.31;;;9.04;80.81
18533;BME280;9396;51.510;11.934;2024-02-23T09:43:50;98625.81;;;9.07;80.00
18533;BME280;9396;51.510;11.934;2024-02-23T09:46:18;98638.91;;;9.29;80.74
18533;BME280;9396;51.510;11.934;2024-02-23T09:48:45;98631.63;;;9.17;79.16
18533;BME280;9396;51.510;11.934;2024-02-23T09:51:14;98632.06;;;8.99;79.35
18533;BME280;9396;51.510;11.934;2024-02-23T09:53:43;98633.03;;;8.77;78.67
18533;BME280;9396;51.510;11.934;2024-02-23T09:56:10;98627.78;;;8.84;78.61
18533;BME280;9396;51.510;11.934;2024-02-23T09:58:37;98636.69;;;8.76;78.71
18533;BME280;9396;51.510;11.934;2024-02-23T10:01:05;98643.72;;;8.69;78.04
18533;BME280;9396;51.510;11.934;2024-02-23T10:03:32;98638.81;;;8.51;78.38
18533;BME280;9396;51.510;11.934;2024-02-23T10:05:59;98655.72;;;8.50;79.97
18533;BME280;9396;51.510;11.934;2024-02-23T10:08:28;98657.72;;;8.34;77.99
18533;BME280;9396;51.510;11.934;2024-02-23T10:10:55;98650.69;;;8.41;80.09
18533;BME280;9396;51.510;11.934;2024-02-23T10:13:22;98647.97;;;8.34;78.71
18533;BME280;9396;51.510;11.934;2024-02-23T10:15:50;98662.75;;;8.43;79.11
18533;BME280;9396;51.510;11.934;2024-02-23T10:18:17;98659.34;;;8.35;78.65
18533;BME280;9396;51.510;11.934;2024-02-23T10:20:43;98667.88;;;8.45;78.96
18533;BME280;9396;51.510;11.934;2024-02-23T10:23:10;98671.44;;;8.67;78.02
18533;BME280;9396;51.510;11.934;2024-02-23T10:25:38;98665.38;;;8.58;78.50
18533;BME280;9396;51.510;11.934;2024-02-23T10:28:05;98673.97;;;8.60;79.80
18533;BME280;9396;51.510;11.934;2024-02-23T10:30:32;98666.59;;;8.55;77.35
18533;BME280;9396;51.510;11.934;2024-02-23T10:32:59;98675.19;;;8.57;78.06
18533;BME280;9396;51.510;11.934;2024-02-23T10:35:26;98665.56;;;8.56;78.36
18533;BME280;9396;51.510;11.934;2024-02-23T10:37:53;98665.94;;;8.53;79.59
18533;BME280;9396;51.510;11.934;2024-02-23T10:40:21;98660.19;;;8.64;78.74
18533;BME280;9396;51.510;11.934;2024-02-23T10:42:51;98668.41;;;8.70;78.14
18533;BME280;9396;51.510;11.934;2024-02-23T10:45:22;98664.66;;;8.79;78.59
18533;BME280;9396;51.510;11.934;2024-02-23T10:47:50;98666.66;;;8.77;77.72
18533;BME280;9396;51.510;11.934;2024-02-23T10:50:17;98677.97;;;8.85;76.40
18533;BME280;9396;51.510;11.934;2024-02-23T10:52:45;98675.63;;;8.76;78.29
18533;BME280;9396;51.510;11.934;2024-02-23T10:55:13;98660.03;;;9.02;77.57
18533;BME280;9396;51.510;11.934;2024-02-23T10:57:40;98677.25;;;8.91;77.74
18533;BME280;9396;51.510;11.934;2024-02-23T11:00:09;98672.47;;;9.01;78.28
18533;BME280;9396;51.510;11.934;2024-02-23T11:02:40;98676.84;;;9.09;76.36
18533;BME280;9396;51.510;11.934;2024-02-23T11:05:08;98674.13;;;9.02;77.92
18533;BME280;9396;51.510;11.934;2024-02-23T11:07:38;98683.38;;;8.92;77.37
18533;BME280;9396;51.510;11.934;2024-02-23T11:10:05;98683.59;;;8.76;78.53
18533;BME280;9396;51.510;11.934;2024-02-23T11:12:33;98687.84;;;8.91;77.22
18533;BME280;9396;51.510;11.934;2024-02-23T11:15:00;98677.72;;;8.65;78.96
18533;BME280;9396;51.510;11.934;2024-02-23T11:17:29;98689.69;;;8.76;80.56
18533;BME280;9396;51.510;11.934;2024-02-23T11:19:56;98695.69;;;8.99;79.09
18533;BME280;9396;51.510;11.934;2024-02-23T11:22:24;98702.13;;;9.26;78.31
18533;BME280;9396;51.510;11.934;2024-02-23T11:24:51;98701.25;;;9.04;77.69
18533;BME280;9396;51.510;11.934;2024-02-23T11:27:18;98689.66;;;9.05;77.80
18533;BME280;9396;51.510;11.934;2024-02-23T11:29:45;98689.19;;;9.16;79.22
18533;BME280;9396;51.510;11.934;2024-02-23T11:32:14;98696.81;;;9.26;76.34
18533;BME280;9396;51.510;11.934;2024-02-23T11:34:54;98702.78;;;9.49;74.68
18533;BME280;9396;51.510;11.934;2024-02-23T11:37:21;98709.78;;;9.35;74.88
18533;BME280;9396;51.510;11.934;2024-02-23T11:39:48;98705.72;;;9.18;76.33
18533;BME280;9396;51.510;11.934;2024-02-23T11:42:14;98702.09;;;9.05;75.96
18533;BME280;9396;51.510;11.934;2024-02-23T11:44:41;98698.34;;;8.85;76.05
18533;BME280;9396;51.510;11.934;2024-02-23T11:47:07;98708.25;;;8.91;77.14
18533;BME280;9396;51.510;11.934;2024-02-23T11:49:34;98690.84;;;9.03;75.74
18533;BME280;9396;51.510;11.934;2024-02-23T11:52:02;98702.69;;;9.21;75.44
18533;BME280;9396;51.510;11.934;2024-02-23T11:54:30;98702.28;;;9.03;73.80
18533;BME280;9396;51.510;11.934;2024-02-23T11:56:57;98693.72;;;9.22;73.65
18533;BME280;9396;51.510;11.934;2024-02-23T11:59:24;98707.97;;;9.36;73.51
18533;BME280;9396;51.510;11.934;2024-02-23T12:01:51;98705.97;;;9.38;74.58
18533;BME280;9396;51.510;11.934;2024-02-23T12:04:18;98706.75;;;9.38;73.73
18533;BME280;9396;51.510;11.934;2024-02-23T12:06:44;98711.72;;;9.41;73.46
18533;BME280;9396;51.510;11.934;2024-02-23T12:09:13;98718.72;;;9.49;74.18
18533;BME280;9396;51.510;11.934;2024-02-23T12:11:41;98717.13;;;9.54;76.04
18533;BME280;9396;51.510;11.934;2024-02-23T12:14:08;98713.25;;;9.71;74.70
18533;BME280;9396;51.510;11.934;2024-02-23T12:16:34;98708.22;;;9.62;74.87
18533;BME280;9396;51.510;11.934;2024-02-23T12:19:01;98704.56;;;9.63;73.68
18533;BME280;9396;51.510;11.934;2024-02-23T12:21:29;98711.66;;;9.77;73.65
18533;BME280;9396;51.510;11.934;2024-02-23T12:23:55;98709.50;;;9.87;73.49
18533;BME280;9396;51.510;11.934;2024-02-23T12:26:24;98709.97;;;9.97;73.77
18533;BME280;9396;51.510;11.934;2024-02-23T12:28:50;98714.19;;;9.85;73.88
18533;BME280;9396;51.510;11.934;2024-02-23T12:31:23;98707.72;;;9.94;73.89
18533;BME280;9396;51.510;11.934;2024-02-23T12:33:51;98707.13;;;9.99;72.98
18533;BME280;9396;51.510;11.934;2024-02-23T12:36:17;98711.34;;;9.65;74.71
18533;BME280;9396;51.510;11.934;2024-02-23T12:38:44;98716.63;;;9.44;76.17
18533;BME280;9396;51.510;11.934;2024-02-23T12:41:11;98722.69;;;9.38;74.47
18533;BME280;9396;51.510;11.934;2024-02-23T12:43:39;98723.66;;;9.52;75.12
18533;BME280;9396;51.510;11.934;2024-02-23T12:46:05;98722.97;;;9.64;74.23
18533;BME280;9396;51.510;11.934;2024-02-23T12:48:34;98719.03;;;9.82;75.69
18533;BME280;9396;51.510;11.934;2024-02-23T12:51:00;98713.72;;;9.82;73.65
18533;BME280;9396;51.510;11.934;2024-02-23T12:53:32;98713.94;;;9.80;72.38
18533;BME280;9396;51.510;11.934;2024-02-23T12:56:00;98716.44;;;9.88;73.82
18533;BME280;9396;51.510;11.934;2024-02-23T12:58:27;98722.66;;;9.74;74.42
18533;BME280;9396;51.510;11.934;2024-02-23T13:00:55;98729.16;;;9.71;74.90
18533;BME280;9396;51.510;11.934;2024-02-23T13:03:22;98714.19;;;9.85;74.53
18533;BME280;9396;51.510;11.934;2024-02-23T13:05:49;98711.00;;;9.96;74.23
18533;BME280;9396;51.510;11.934;2024-02-23T13:08:16;98717.03;;;9.84;74.59